Time;durP1;ratioP1;P1;durP2;ratioP2;P2;SDS_P1;SDS_P2;PMS_P1;PMS_P2;Temp;Humidity;BMP_temperature;BMP_pressure;BME280_temperature;BME280_humidity;BME280_pressure;Samples;Min_cycle;Max_cycle;Signal;HPM_P1;HPM_P2
2023/05/05 00:00:50;;;;;;;;;2.25;0.25;;;;;20.83;46.22;101057.16;4946416;28;45663;-61
2023/05/05 00:03:17;;;;;;;;;0.00;0.00;;;;;20.84;46.38;101055.22;4915786;28;45544;-61
2023/05/05 00:05:42;;;;;;;;;1.60;1.60;;;;;20.74;46.63;101060.75;4930346;28;45418;-59
2023/05/05 00:08:08;;;;;;;;;0.00;0.00;;;;;20.67;46.68;101045.09;4916425;28;45309;-59
2023/05/05 00:10:33;;;;;;;;;1.00;0.25;;;;;20.60;46.92;101041.72;4915384;28;45394;-60
2023/05/05 00:12:59;;;;;;;;;2.00;0.75;;;;;20.33;47.71;101042.69;4915687;28;45463;-59
2023/05/05 00:15:25;;;;;;;;;2.75;0.00;;;;;20.31;47.87;101042.97;4915791;28;45500;-60
2023/05/05 00:17:50;;;;;;;;;2.00;1.00;;;;;20.39;47.36;101038.81;4915506;28;45587;-59
2023/05/05 00:20:16;;;;;;;;;1.25;1.25;;;;;20.45;47.52;101028.56;4946037;28;47613;-60
2023/05/05 00:22:41;;;;;;;;;0.25;0.25;;;;;20.54;47.23;101049.22;4986973;28;45445;-59
2023/05/05 00:25:07;;;;;;;;;0.50;0.50;;;;;20.59;47.27;101042.81;5016179;28;45316;-59
2023/05/05 00:27:33;;;;;;;;;1.50;1.50;;;;;20.41;47.65;101046.91;5016336;28;45326;-60
2023/05/05 00:29:58;;;;;;;;;2.00;2.00;;;;;20.18;48.08;101035.94;5015891;28;46070;-60
2023/05/05 00:32:24;;;;;;;;;1.75;1.00;;;;;20.11;48.37;101032.56;5015739;28;45331;-60
2023/05/05 00:34:49;;;;;;;;;1.00;1.00;;;;;20.01;48.75;101033.31;5047228;28;45391;-59
2023/05/05 00:37:15;;;;;;;;;3.00;1.75;;;;;19.89;48.95;101029.88;5016280;28;45371;-59
2023/05/05 00:39:40;;;;;;;;;1.00;1.00;;;;;20.04;48.45;101015.25;5015346;28;46575;-59
2023/05/05 00:42:06;;;;;;;;;1.00;1.00;;;;;20.03;48.75;101016.34;5015955;28;45404;-59
2023/05/05 00:44:37;;;;;;;;;3.75;1.75;;;;;20.12;48.40;101020.28;5015348;28;45407;-60
2023/05/05 00:47:02;;;;;;;;;1.80;1.00;;;;;20.14;48.34;101028.38;5015580;28;45286;-59
2023/05/05 00:49:28;;;;;;;;;1.50;1.50;;;;;20.02;48.66;101034.19;5015569;28;45334;-59
2023/05/05 00:51:53;;;;;;;;;1.25;1.25;;;;;19.95;48.83;101031.63;5030576;28;45365;-60
2023/05/05 00:54:19;;;;;;;;;2.25;1.00;;;;;19.89;49.11;101038.22;5047498;28;45516;-59
2023/05/05 00:56:45;;;;;;;;;1.00;1.00;;;;;19.82;49.43;101044.03;5047694;28;45877;-59
2023/05/05 00:59:10;;;;;;;;;3.00;2.00;;;;;19.81;49.60;101041.50;4992893;28;46757;-59
2023/05/05 01:01:36;;;;;;;;;1.75;1.00;;;;;19.84;49.65;101044.59;5009397;28;45401;-59
2023/05/05 01:04:01;;;;;;;;;1.50;1.00;;;;;19.88;49.35;101045.75;5014562;28;45556;-59
2023/05/05 01:07:02;;;;;;;;;1.25;1.25;;;;;19.89;49.17;101032.66;5015761;28;45416;-59
2023/05/05 01:09:37;;;;;;;;;1.40;1.40;;;;;19.92;49.59;101040.50;5043010;28;45333;-59
2023/05/05 01:12:17;;;;;;;;;2.80;1.00;;;;;19.85;49.77;101039.88;5047376;28;45446;-59
2023/05/05 01:14:45;;;;;;;;;4.00;1.00;;;;;19.80;50.08;101042.63;5047116;28;45456;-59
2023/05/05 01:17:17;;;;;;;;;2.80;2.80;;;;;19.63;50.44;101044.44;5047267;28;45415;-60
2023/05/05 01:20:03;;;;;;;;;2.60;1.00;;;;;19.61;50.81;101041.09;5047030;28;48207;-59
2023/05/05 01:22:35;;;;;;;;;3.80;2.20;;;;;19.72;50.74;101032.81;5000238;28;45386;-59
2023/05/05 01:25:02;;;;;;;;;6.00;3.40;;;;;19.70;50.62;101024.72;4929676;28;45397;-59
2023/05/05 01:28:05;;;;;;;;;0.80;0.20;;;;;19.57;51.34;101017.66;4945514;28;45661;-60
2023/05/05 01:31:05;;;;;;;;;2.80;1.60;;;;;19.29;52.22;101025.22;4940860;28;45674;-59
2023/05/05 01:33:34;;;;;;;;;3.00;2.00;;;;;19.06;52.64;101018.88;4945141;28;45497;-59
2023/05/05 01:36:07;;;;;;;;;1.00;1.00;;;;;19.31;51.82;101009.09;4945375;28;45343;-59
2023/05/05 01:38:39;;;;;;;;;1.40;1.40;;;;;19.50;51.51;101011.50;4945023;28;45681;-60
2023/05/05 01:41:16;;;;;;;;;1.60;1.00;;;;;19.59;51.17;101003.50;4944556;28;45666;-58
2023/05/05 01:43:44;;;;;;;;;2.60;2.00;;;;;19.55;51.46;101005.13;4943702;28;45325;-58
2023/05/05 01:46:10;;;;;;;;;3.00;2.20;;;;;19.37;51.84;100999.69;4945058;28;45365;-58
2023/05/05 01:48:36;;;;;;;;;2.00;1.00;;;;;19.25;52.60;100992.66;4914928;28;45224;-58
2023/05/05 01:51:02;;;;;;;;;1.75;1.00;;;;;19.26;52.54;100999.88;4944919;28;46304;-58
2023/05/05 01:53:27;;;;;;;;;0.75;0.75;;;;;19.34;52.11;101000.25;4912806;28;45514;-58
2023/05/05 01:55:53;;;;;;;;;1.75;1.75;;;;;19.20;52.91;101002.59;4914360;28;45383;-58
2023/05/05 01:58:19;;;;;;;;;4.00;2.00;;;;;19.05;53.10;100997.72;4945033;28;45475;-58
2023/05/05 02:00:44;;;;;;;;;1.00;1.00;;;;;19.03;52.70;101004.66;4944319;28;47693;-61
2023/05/05 02:03:11;;;;;;;;;2.00;2.00;;;;;19.14;53.12;101016.72;4896696;28;45914;-58
2023/05/05 02:05:37;;;;;;;;;2.40;1.40;;;;;19.25;52.50;101014.91;4912877;28;45350;-58
2023/05/05 02:08:03;;;;;;;;;3.60;1.00;;;;;19.29;52.40;101005.75;4928889;28;45392;-58
2023/05/05 02:10:29;;;;;;;;;4.50;2.00;;;;;19.43;52.12;100996.97;4915127;28;46499;-58
2023/05/05 02:12:54;;;;;;;;;1.00;1.00;;;;;19.50;52.06;101001.22;4932079;28;45286;-63
2023/05/05 02:15:20;;;;;;;;;2.00;1.00;;;;;19.48;52.16;101003.41;4915673;28;45289;-59
2023/05/05 02:17:46;;;;;;;;;1.75;1.00;;;;;19.24;52.46;100994.56;4915870;28;45605;-60
2023/05/05 02:20:12;;;;;;;;;1.50;0.50;;;;;19.35;52.44;101007.47;4915783;28;45677;-60
2023/05/05 02:22:37;;;;;;;;;1.60;1.40;;;;;19.23;53.14;101024.31;4971960;28;45369;-59
2023/05/05 02:25:03;;;;;;;;;2.25;2.25;;;;;19.14;53.19;101020.34;5049723;28;45356;-59
2023/05/05 02:27:29;;;;;;;;;2.00;0.25;;;;;19.30;52.77;101035.25;5049998;28;45598;-59
2023/05/05 02:29:57;;;;;;;;;1.00;1.00;;;;;19.41;52.61;101046.50;5049524;28;45980;-60
2023/05/05 02:32:31;;;;;;;;;3.60;2.20;;;;;19.32;52.63;101044.16;5049196;28;45332;-59
2023/05/05 02:34:57;;;;;;;;;1.20;1.00;;;;;19.47;52.41;101034.28;5048375;28;45383;-60
2023/05/05 02:37:23;;;;;;;;;1.80;1.80;;;;;19.55;52.24;101036.59;5049988;28;45330;-59
2023/05/05 02:40:00;;;;;;;;;0.75;0.75;;;;;19.26;53.00;101038.84;5015881;28;45573;-59
2023/05/05 02:42:28;;;;;;;;;0.60;0.60;;;;;19.28;53.28;101034.69;5049378;28;45286;-59
2023/05/05 02:44:55;;;;;;;;;2.00;2.00;;;;;19.36;53.05;101031.41;5032312;28;45864;-59
2023/05/05 02:47:21;;;;;;;;;2.60;1.00;;;;;19.38;52.76;101022.81;5017328;28;45481;-59
2023/05/05 02:49:46;;;;;;;;;2.50;2.00;;;;;19.36;52.89;101028.63;5048980;28;45777;-59
2023/05/05 02:52:12;;;;;;;;;3.50;1.75;;;;;18.91;54.09;101019.56;5049146;28;45393;-59
2023/05/05 02:54:37;;;;;;;;;2.00;2.00;;;;;18.90;54.60;101025.38;5017455;28;45434;-59
2023/05/05 02:57:03;;;;;;;;;1.00;1.00;;;;;18.90;54.46;101025.38;5015717;28;45566;-60
2023/05/05 02:59:30;;;;;;;;;3.00;1.00;;;;;18.93;53.96;100999.81;5017092;28;45979;-60
2023/05/05 03:02:15;;;;;;;;;2.00;2.00;;;;;19.25;53.70;101032.41;5049107;28;45337;-59
2023/05/05 03:04:42;;;;;;;;;2.40;1.20;;;;;19.35;53.17;101029.75;5016785;28;45302;-60
2023/05/05 03:07:19;;;;;;;;;2.20;1.00;;;;;19.41;53.08;101022.28;5016936;28;45397;-59
2023/05/05 03:09:47;;;;;;;;;1.00;1.00;;;;;19.44;53.05;101018.97;5048128;28;46474;-60
2023/05/05 03:12:16;;;;;;;;;1.80;1.80;;;;;19.49;52.96;101010.63;5048775;28;45465;-59
2023/05/05 03:14:42;;;;;;;;;2.60;1.00;;;;;19.51;53.07;101002.03;5048692;28;45470;-60
2023/05/05 03:17:11;;;;;;;;;2.50;1.00;;;;;19.50;52.63;100997.56;5031949;28;45517;-59
2023/05/05 03:19:40;;;;;;;;;2.20;1.60;;;;;19.53;52.67;100999.81;5016697;28;46451;-59
2023/05/05 03:22:05;;;;;;;;;1.20;0.80;;;;;19.48;52.91;100997.00;5003622;28;45263;-59
2023/05/05 03:24:31;;;;;;;;;6.00;3.00;;;;;19.53;53.01;100999.81;4916517;28;45382;-59
2023/05/05 03:26:56;;;;;;;;;1.75;1.25;;;;;19.57;52.79;101003.75;4931177;28;45570;-60
2023/05/05 03:29:22;;;;;;;;;1.25;1.25;;;;;19.59;52.90;101012.66;4914751;28;47761;-59
2023/05/05 03:31:47;;;;;;;;;3.00;1.00;;;;;19.34;52.84;101016.94;4915840;28;45322;-59
2023/05/05 03:34:13;;;;;;;;;2.00;2.00;;;;;19.33;52.66;101009.66;4916024;28;45274;-59
2023/05/05 03:36:39;;;;;;;;;1.00;1.00;;;;;19.32;53.06;101004.38;4916707;28;45706;-60
2023/05/05 03:39:05;;;;;;;;;1.00;1.00;;;;;19.41;53.09;101018.66;4930100;28;46305;-59
2023/05/05 03:41:30;;;;;;;;;1.50;1.00;;;;;19.43;52.87;101042.31;4916122;28;45519;-59
2023/05/05 03:43:56;;;;;;;;;2.75;1.00;;;;;19.35;52.94;101045.59;4916338;28;45543;-59
2023/05/05 03:46:21;;;;;;;;;3.25;2.25;;;;;19.32;53.08;101043.34;4930438;28;45342;-59
2023/05/05 03:48:47;;;;;;;;;2.00;1.00;;;;;19.35;53.13;101040.88;4914737;28;45989;-59
2023/05/05 03:51:13;;;;;;;;;3.25;1.50;;;;;19.39;53.02;101045.91;4915826;28;45799;-59
2023/05/05 03:53:38;;;;;;;;;1.00;1.00;;;;;19.42;52.93;101054.56;4916413;28;45364;-59
2023/05/05 03:56:04;;;;;;;;;4.00;1.50;;;;;19.45;52.63;101048.47;4915976;28;45418;-59
2023/05/05 03:58:29;;;;;;;;;3.25;2.00;;;;;19.34;53.31;101047.56;4915808;28;46703;-59
2023/05/05 04:00:55;;;;;;;;;2.25;2.00;;;;;19.16;53.35;101034.84;4914784;28;45404;-59
2023/05/05 04:03:21;;;;;;;;;2.00;1.75;;;;;19.18;53.37;101026.22;4915858;28;45293;-59
2023/05/05 04:05:46;;;;;;;;;2.00;2.00;;;;;19.32;53.26;101055.31;4930899;28;45417;-59
2023/05/05 04:08:12;;;;;;;;;4.00;3.00;;;;;19.38;53.43;101064.56;4915968;28;45476;-58
2023/05/05 04:10:37;;;;;;;;;2.75;2.00;;;;;19.41;53.33;101063.19;4916035;28;45338;-59
2023/05/05 04:13:03;;;;;;;;;4.25;2.00;;;;;19.36;53.23;101058.41;4915907;28;45370;-59
2023/05/05 04:15:28;;;;;;;;;3.25;1.75;;;;;19.23;53.59;101074.41;4930376;28;45327;-59
2023/05/05 04:17:54;;;;;;;;;4.00;2.50;;;;;18.74;54.94;101069.69;4915800;28;46424;-59
2023/05/05 04:20:20;;;;;;;;;2.00;2.00;;;;;18.67;55.52;101074.56;4914341;28;45310;-59
2023/05/05 04:22:45;;;;;;;;;2.00;2.00;;;;;18.72;55.45;101074.66;4946125;28;45283;-59
2023/05/05 04:25:11;;;;;;;;;3.50;2.00;;;;;18.83;55.20;101073.69;5016382;28;45646;-59
2023/05/05 04:27:36;;;;;;;;;1.75;1.75;;;;;18.97;54.93;101078.84;5047643;28;45373;-59
2023/05/05 04:30:02;;;;;;;;;2.75;2.75;;;;;18.84;55.41;101077.31;5016187;28;45148;-58
2023/05/05 04:32:28;;;;;;;;;6.25;2.00;;;;;18.86;55.66;101079.81;5030973;28;45371;-59
2023/05/05 04:34:53;;;;;;;;;4.50;4.00;;;;;19.03;55.42;101080.59;5016198;28;45546;-59
2023/05/05 04:37:19;;;;;;;;;2.25;1.00;;;;;19.12;55.15;101077.34;5047738;28;48107;-61
2023/05/05 04:39:45;;;;;;;;;3.00;2.00;;;;;19.15;54.81;101071.28;5015530;28;45219;-60
2023/05/05 04:42:10;;;;;;;;;3.00;3.00;;;;;19.26;55.25;101084.19;5031043;28;45400;-59
2023/05/05 04:44:36;;;;;;;;;4.00;3.00;;;;;19.27;55.25;101087.81;5015748;28;45542;-59
2023/05/05 04:47:01;;;;;;;;;3.00;3.00;;;;;19.14;55.87;101080.69;5047388;28;46383;-60
2023/05/05 04:49:30;;;;;;;;;2.25;2.25;;;;;19.10;55.64;101080.38;5016013;28;45409;-60
2023/05/05 04:51:55;;;;;;;;;3.00;2.60;;;;;19.15;55.43;101090.75;5048008;28;45469;-58
2023/05/05 04:54:21;;;;;;;;;3.75;2.50;;;;;19.15;55.84;101085.19;5016043;28;45406;-59
2023/05/05 04:56:47;;;;;;;;;1.00;1.00;;;;;19.05;56.28;101086.75;5015237;28;45469;-59
2023/05/05 04:59:13;;;;;;;;;4.50;4.00;;;;;19.09;56.16;101090.69;5014421;28;45505;-61
2023/05/05 05:01:39;;;;;;;;;3.00;3.00;;;;;19.16;55.94;101089.66;5015484;28;45361;-59
2023/05/05 05:04:05;;;;;;;;;2.00;2.00;;;;;19.18;56.25;101084.66;5015674;28;45563;-60
2023/05/05 05:06:31;;;;;;;;;3.00;3.00;;;;;19.17;56.51;101086.63;5014488;28;46364;-60
2023/05/05 05:08:56;;;;;;;;;5.00;3.00;;;;;19.32;56.62;101099.00;5047384;28;45348;-59
2023/05/05 05:11:22;;;;;;;;;2.50;2.50;;;;;19.34;56.08;101100.41;5015682;28;45409;-59
2023/05/05 05:13:47;;;;;;;;;2.00;2.00;;;;;19.18;56.44;101091.06;5014561;28;45416;-60
2023/05/05 05:16:13;;;;;;;;;4.50;2.75;;;;;19.13;56.73;101096.56;5015237;28;46146;-59
2023/05/05 05:18:38;;;;;;;;;3.75;3.00;;;;;19.10;56.60;101086.81;5047760;28;45315;-60
2023/05/05 05:21:04;;;;;;;;;2.25;2.25;;;;;19.10;57.28;101089.59;5015401;28;45266;-59
2023/05/05 05:23:30;;;;;;;;;3.00;2.00;;;;;18.99;57.16;101096.09;4956143;28;45411;-59
2023/05/05 05:25:56;;;;;;;;;5.50;2.25;;;;;18.95;57.77;101097.72;4929605;28;46436;-60
2023/05/05 05:28:21;;;;;;;;;4.20;2.60;;;;;18.94;57.88;101098.84;4914493;28;45397;-59
2023/05/05 05:30:47;;;;;;;;;4.25;3.25;;;;;18.88;57.59;101100.69;4929626;28;45264;-59
2023/05/05 05:33:12;;;;;;;;;2.50;2.50;;;;;18.77;58.24;101098.88;4914988;28;45292;-60
2023/05/05 05:35:38;;;;;;;;;4.00;3.00;;;;;18.76;58.64;101109.19;4914762;28;46548;-59
2023/05/05 05:38:03;;;;;;;;;7.00;3.00;;;;;18.88;57.75;101111.81;4914559;28;45247;-59
2023/05/05 05:40:30;;;;;;;;;3.50;2.00;;;;;18.97;57.60;101106.66;4913672;28;45333;-59
2023/05/05 05:42:55;;;;;;;;;4.00;2.80;;;;;19.06;57.74;101105.09;4929701;28;45281;-59
2023/05/05 05:45:21;;;;;;;;;5.50;3.75;;;;;19.09;57.42;101112.09;4913872;28;45752;-58
2023/05/05 05:47:46;;;;;;;;;4.75;3.25;;;;;19.10;57.22;101106.28;4914449;28;45264;-58
2023/05/05 05:50:12;;;;;;;;;2.50;2.00;;;;;19.10;57.34;101108.22;4914869;28;45694;-58
2023/05/05 05:52:38;;;;;;;;;2.00;2.00;;;;;18.99;57.58;101111.97;4929405;28;45475;-60
2023/05/05 05:55:04;;;;;;;;;1.25;1.25;;;;;19.08;57.98;101114.06;4880084;28;46396;-59
2023/05/05 05:57:29;;;;;;;;;6.40;2.60;;;;;19.18;58.02;101120.81;4914557;28;45401;-59
2023/05/05 05:59:55;;;;;;;;;3.50;3.00;;;;;19.18;57.52;101121.69;4914489;28;45405;-60
2023/05/05 06:02:20;;;;;;;;;2.00;2.00;;;;;19.23;58.03;101134.78;4914548;28;45365;-60
2023/05/05 06:04:46;;;;;;;;;4.25;3.75;;;;;19.31;57.16;101125.97;4914423;28;45798;-60
2023/05/05 06:07:12;;;;;;;;;2.00;2.00;;;;;19.22;57.32;101125.59;4913181;28;45567;-61
2023/05/05 06:09:37;;;;;;;;;2.75;2.75;;;;;19.36;57.60;101126.03;4915057;28;45346;-60
2023/05/05 06:12:03;;;;;;;;;3.75;3.00;;;;;19.41;56.82;101139.16;4914425;28;45545;-60
2023/05/05 06:14:28;;;;;;;;;3.00;3.00;;;;;19.36;56.87;101139.09;4914667;28;46003;-60
2023/05/05 06:16:54;;;;;;;;;3.00;2.25;;;;;19.35;57.06;101141.06;4914387;28;45286;-60
2023/05/05 06:19:20;;;;;;;;;2.50;2.50;;;;;19.45;58.36;101139.47;4914188;28;45431;-60
2023/05/05 06:21:45;;;;;;;;;2.50;1.25;;;;;19.42;56.75;101131.66;4914454;28;45595;-62
2023/05/05 06:24:11;;;;;;;;;1.75;1.75;;;;;19.22;57.24;101135.91;4998181;28;45314;-61
2023/05/05 06:26:36;;;;;;;;;1.00;1.00;;;;;19.34;57.19;101144.09;5014521;28;45286;-61
2023/05/05 06:29:02;;;;;;;;;4.25;4.00;;;;;19.21;57.88;101146.19;5014720;28;45502;-61
2023/05/05 06:31:28;;;;;;;;;2.00;2.00;;;;;19.06;57.79;101141.25;5014408;28;45439;-60
2023/05/05 06:33:53;;;;;;;;;4.00;2.50;;;;;19.06;58.10;101140.44;5013886;28;46013;-61
2023/05/05 06:36:19;;;;;;;;;2.75;1.75;;;;;19.13;57.80;101143.00;5045352;28;45508;-61
2023/05/05 06:38:44;;;;;;;;;3.75;2.75;;;;;18.91;58.22;101132.72;5013828;28;45427;-62
2023/05/05 06:41:10;;;;;;;;;5.00;3.00;;;;;18.94;58.23;101127.47;5014268;28;45326;-61
2023/05/05 06:43:35;;;;;;;;;2.25;2.25;;;;;18.93;58.23;101113.81;5013579;28;45670;-61
2023/05/05 06:46:01;;;;;;;;;3.25;3.25;;;;;19.01;58.18;101121.72;5013839;28;45529;-61
2023/05/05 06:48:27;;;;;;;;;2.00;1.00;;;;;19.05;58.26;101114.56;5013535;28;45298;-60
2023/05/05 06:50:52;;;;;;;;;8.75;2.50;;;;;18.89;58.06;101105.16;5014387;28;45294;-61
2023/05/05 06:53:18;;;;;;;;;4.00;2.00;;;;;18.97;58.34;101106.66;5012419;28;46110;-62
2023/05/05 06:55:45;;;;;;;;;2.50;2.50;;;;;19.04;58.29;101115.66;5029780;28;45298;-60
2023/05/05 06:58:11;;;;;;;;;5.80;3.40;;;;;19.09;57.84;101118.50;5032646;28;45670;-61
2023/05/05 07:00:41;;;;;;;;;2.50;1.50;;;;;19.14;57.90;101126.06;5049579;28;45191;-60
2023/05/05 07:03:06;;;;;;;;;3.00;3.00;;;;;19.16;58.01;101131.38;5017236;28;47057;-61
2023/05/05 07:05:35;;;;;;;;;2.50;2.00;;;;;19.23;57.72;101138.41;5032716;28;45873;-61
2023/05/05 07:08:01;;;;;;;;;3.20;3.20;;;;;19.24;57.85;101139.25;5049295;28;45402;-61
2023/05/05 07:10:27;;;;;;;;;2.75;2.75;;;;;19.25;57.73;101134.53;5049688;28;45231;-62
2023/05/05 07:12:53;;;;;;;;;2.25;2.25;;;;;19.36;57.49;101150.22;5048982;28;48515;-61
2023/05/05 07:15:19;;;;;;;;;3.60;3.60;;;;;19.39;57.24;101148.88;5017114;28;45415;-60
2023/05/05 07:17:45;;;;;;;;;2.80;2.80;;;;;19.40;57.31;101139.41;5048844;28;45449;-61
2023/05/05 07:20:11;;;;;;;;;4.00;2.50;;;;;19.36;57.58;101150.22;5016188;28;45363;-61
2023/05/05 07:22:36;;;;;;;;;2.75;2.75;;;;;19.39;57.56;101154.44;5031378;28;45626;-61
2023/05/05 07:25:02;;;;;;;;;3.50;3.50;;;;;19.45;57.21;101148.69;4914508;28;45412;-61
2023/05/05 07:27:29;;;;;;;;;2.00;2.00;;;;;19.29;57.67;101147.66;4915398;28;45425;-61
2023/05/05 07:29:54;;;;;;;;;7.20;3.00;;;;;19.27;58.00;101144.31;4931230;28;45428;-61
2023/05/05 07:32:20;;;;;;;;;3.75;3.75;;;;;19.22;58.15;101138.69;4916295;28;45467;-61
2023/05/05 07:34:46;;;;;;;;;3.00;3.00;;;;;19.37;57.74;101122.16;4915122;28;45447;-59
2023/05/05 07:37:11;;;;;;;;;3.00;3.00;;;;;19.47;57.83;101146.47;4931200;28;45357;-62
2023/05/05 07:39:37;;;;;;;;;6.00;5.00;;;;;19.48;57.81;101152.88;4916670;28;45360;-60
2023/05/05 07:42:03;;;;;;;;;8.25;6.00;;;;;19.52;57.24;101145.66;4891022;28;47844;-60
2023/05/05 07:44:29;;;;;;;;;5.25;3.25;;;;;19.46;57.12;101118.88;4909821;28;45409;-59
2023/05/05 07:46:54;;;;;;;;;2.80;2.80;;;;;19.36;57.00;101114.91;4916201;28;45327;-60
2023/05/05 07:49:20;;;;;;;;;6.25;3.75;;;;;19.35;57.54;101115.16;4915157;28;45443;-64
2023/05/05 07:51:48;;;;;;;;;2.00;2.00;;;;;19.37;57.04;101118.50;4889033;28;46069;-62
2023/05/05 07:54:15;;;;;;;;;2.00;2.00;;;;;19.39;57.47;101129.38;4916735;28;45609;-61
2023/05/05 07:56:40;;;;;;;;;3.80;3.80;;;;;19.38;57.30;101134.13;4908385;28;45447;-61
2023/05/05 07:59:06;;;;;;;;;7.25;4.00;;;;;19.33;57.25;101145.19;4915602;28;45612;-60
2023/05/05 08:01:32;;;;;;;;;3.50;3.50;;;;;19.37;57.35;101132.44;4912114;28;45412;-59
2023/05/05 08:03:57;;;;;;;;;2.00;2.00;;;;;19.47;57.32;101148.38;4990620;28;45589;-59
2023/05/05 08:06:24;;;;;;;;;3.50;3.50;;;;;19.59;57.04;101160.22;5028675;28;45444;-58
2023/05/05 08:08:53;;;;;;;;;3.00;2.00;;;;;19.60;57.03;101167.50;5045571;28;45502;-58
2023/05/05 08:11:19;;;;;;;;;2.60;2.60;;;;;19.65;56.46;101166.69;5045383;28;46459;-59
2023/05/05 08:13:45;;;;;;;;;2.40;1.80;;;;;19.74;56.33;101180.97;4995099;28;45460;-60
2023/05/05 08:16:11;;;;;;;;;4.50;4.50;;;;;19.74;56.34;101175.41;4931343;28;45358;-59
2023/05/05 08:18:37;;;;;;;;;1.40;1.40;;;;;19.79;56.22;101178.22;4912572;28;45460;-61
2023/05/05 08:21:06;;;;;;;;;3.80;3.00;;;;;19.68;56.10;101182.84;4928288;28;45704;-60
2023/05/05 08:23:33;;;;;;;;;3.00;3.00;;;;;19.67;56.49;101160.84;4965913;28;45895;-60
2023/05/05 08:25:58;;;;;;;;;4.60;3.00;;;;;19.84;56.01;101169.94;4941266;28;45473;-60
2023/05/05 08:28:24;;;;;;;;;5.00;4.00;;;;;19.82;55.59;101169.34;4911209;28;45783;-59
2023/05/05 08:30:49;;;;;;;;;4.50;3.50;;;;;19.57;56.37;101158.78;4944563;28;46861;-60
2023/05/05 08:33:15;;;;;;;;;6.75;4.50;;;;;19.71;56.29;101160.06;4928693;28;45539;-60
2023/05/05 08:35:41;;;;;;;;;3.75;3.75;;;;;19.76;56.19;101148.97;4913903;28;45434;-60
2023/05/05 08:38:07;;;;;;;;;2.00;2.00;;;;;19.77;54.82;101166.53;4971267;28;45589;-59
2023/05/05 08:40:36;;;;;;;;;2.00;2.00;;;;;19.71;55.29;101167.56;4930410;28;45519;-60
2023/05/05 08:43:01;;;;;;;;;4.00;2.00;;;;;19.69;55.02;101155.88;4927671;28;45528;-59
2023/05/05 08:45:28;;;;;;;;;2.25;1.50;;;;;19.81;54.56;101166.84;4909750;28;45520;-60
2023/05/05 08:47:56;;;;;;;;;3.40;2.40;;;;;19.74;54.46;101172.63;4913797;28;45658;-60
2023/05/05 08:50:24;;;;;;;;;2.80;2.80;;;;;19.80;54.97;101168.75;4953691;28;46235;-60
2023/05/05 08:52:52;;;;;;;;;5.40;3.80;;;;;19.88;54.32;101167.44;4980571;28;46050;-60
2023/05/05 08:55:25;;;;;;;;;2.60;2.60;;;;;20.01;54.00;101158.69;4963057;28;45922;-60
2023/05/05 08:57:53;;;;;;;;;3.00;3.00;;;;;20.11;53.89;101157.09;4922844;28;45373;-60
2023/05/05 09:00:19;;;;;;;;;2.40;2.40;;;;;19.73;53.69;101151.44;4936139;28;46895;-60
2023/05/05 09:02:45;;;;;;;;;2.80;2.80;;;;;19.97;54.15;101159.47;4953502;28;45485;-60
2023/05/05 09:05:11;;;;;;;;;1.50;1.50;;;;;20.00;53.68;101147.78;4957867;28;45518;-61
2023/05/05 09:07:37;;;;;;;;;3.25;1.50;;;;;20.20;53.63;101169.44;4933156;28;45570;-60
2023/05/05 09:10:04;;;;;;;;;3.40;3.40;;;;;20.36;53.04;101161.16;4963328;28;47068;-60
2023/05/05 09:12:29;;;;;;;;;2.20;1.80;;;;;20.47;52.69;101162.06;4946843;28;45618;-62
2023/05/05 09:14:55;;;;;;;;;4.00;2.25;;;;;20.69;51.89;101175.88;4956525;28;45816;-62
2023/05/05 09:17:23;;;;;;;;;3.00;2.25;;;;;20.81;51.74;101173.72;4911919;28;45527;-62
2023/05/05 09:20:04;;;;;;;;;2.00;1.80;;;;;20.88;51.15;101169.88;4926965;28;47753;-62
2023/05/05 09:22:40;;;;;;;;;1.80;1.00;;;;;20.85;51.13;101169.31;4911675;28;45429;-63
2023/05/05 09:25:06;;;;;;;;;2.80;1.80;;;;;20.85;50.94;101176.81;5026732;28;45502;-64
2023/05/05 09:27:36;;;;;;;;;1.40;1.40;;;;;20.94;50.36;101161.28;4966482;28;45641;-61
2023/05/05 09:30:03;;;;;;;;;5.60;2.60;;;;;20.92;50.10;101162.66;4962885;28;46451;-61
2023/05/05 09:32:29;;;;;;;;;3.80;0.80;;;;;21.00;50.02;101164.91;4929218;28;45524;-63
2023/05/05 09:34:58;;;;;;;;;1.00;1.00;;;;;21.04;50.00;101166.06;4926694;28;45515;-61
2023/05/05 09:37:28;;;;;;;;;2.20;2.20;;;;;21.04;49.66;101163.25;4910568;28;45699;-62
2023/05/05 09:40:00;;;;;;;;;2.20;2.20;;;;;21.03;48.80;101161.56;4914346;28;45683;-63
2023/05/05 09:42:26;;;;;;;;;1.00;1.00;;;;;21.17;49.51;101152.72;4931678;28;45589;-62
2023/05/05 09:44:52;;;;;;;;;3.00;3.00;;;;;21.16;49.10;101148.22;4917816;28;45345;-63
2023/05/05 09:47:18;;;;;;;;;0.75;0.75;;;;;21.13;49.03;101147.66;4928164;28;45445;-62
2023/05/05 09:49:43;;;;;;;;;0.20;0.20;;;;;21.22;48.09;101155.50;4911365;28;48488;-61
2023/05/05 09:52:15;;;;;;;;;1.50;1.50;;;;;21.22;48.30;101135.97;4902831;28;46007;-61
2023/05/05 09:54:46;;;;;;;;;1.40;1.40;;;;;21.18;48.45;101132.88;4962208;28;45401;-63
2023/05/05 09:57:28;;;;;;;;;1.60;1.60;;;;;21.08;48.78;101133.69;4927617;28;45620;-63
2023/05/05 09:59:57;;;;;;;;;0.60;0.60;;;;;21.18;48.47;101137.63;4911947;28;46392;-63
2023/05/05 10:02:30;;;;;;;;;2.80;1.60;;;;;21.15;48.64;101129.78;4927735;28;45451;-65
2023/05/05 10:05:12;;;;;;;;;1.80;1.60;;;;;21.19;48.50;101128.97;4923812;28;45500;-64
2023/05/05 10:07:39;;;;;;;;;1.40;0.40;;;;;21.12;47.62;101115.28;4962975;28;45494;-62
2023/05/05 10:10:06;;;;;;;;;0.60;0.60;;;;;21.13;48.28;101122.53;4918462;28;46620;-62
2023/05/05 10:12:34;;;;;;;;;1.40;1.40;;;;;21.17;47.75;101108.06;4911442;28;45520;-62
2023/05/05 10:15:01;;;;;;;;;1.40;0.60;;;;;21.30;47.80;101103.88;4905946;28;45444;-62
2023/05/05 10:17:29;;;;;;;;;2.80;1.40;;;;;21.29;47.29;101096.63;4929099;28;45793;-61
2023/05/05 10:19:56;;;;;;;;;0.20;0.20;;;;;21.35;47.64;101087.16;4960679;28;45576;-61
2023/05/05 10:22:22;;;;;;;;;2.00;0.60;;;;;21.35;47.52;101087.16;4931078;28;45492;-60
2023/05/05 10:25:02;;;;;;;;;1.60;1.60;;;;;21.49;47.49;101093.88;4916121;28;45713;-63
2023/05/05 10:27:28;;;;;;;;;1.80;0.40;;;;;21.53;47.31;101086.63;4925587;28;45679;-62
2023/05/05 10:30:00;;;;;;;;;0.50;0.50;;;;;21.59;47.68;101090.25;4926349;28;47405;-60
2023/05/05 10:32:46;;;;;;;;;2.40;1.00;;;;;21.77;46.66;101085.28;4914497;28;45411;-63
2023/05/05 10:35:18;;;;;;;;;0.80;0.80;;;;;21.90;46.25;101095.03;4914927;28;45507;-62
2023/05/05 10:37:43;;;;;;;;;2.00;1.40;;;;;22.12;46.03;101093.88;4913045;28;45434;-62
2023/05/05 10:40:09;;;;;;;;;0.00;0.00;;;;;22.27;45.49;101098.59;4919369;28;45718;-62
2023/05/05 10:42:38;;;;;;;;;0.75;0.75;;;;;22.28;45.43;101091.88;4933731;28;45393;-63
2023/05/05 10:45:04;;;;;;;;;3.00;1.00;;;;;22.26;45.33;101088.56;4947088;28;45682;-60
2023/05/05 10:47:30;;;;;;;;;0.80;0.80;;;;;22.33;45.26;101081.56;4936936;28;45481;-59
2023/05/05 10:50:10;;;;;;;;;3.75;3.75;;;;;22.14;45.69;101069.31;4964804;28;46100;-64
2023/05/05 10:52:57;;;;;;;;;1.20;1.20;;;;;22.14;45.87;101069.31;4916346;28;45227;-60
2023/05/05 10:55:30;;;;;;;;;1.00;1.00;;;;;22.34;45.70;101076.78;4938660;28;45261;-63
2023/05/05 10:57:56;;;;;;;;;1.00;1.00;;;;;22.31;45.38;101071.78;4890887;28;46001;-64
2023/05/05 11:00:37;;;;;;;;;1.25;1.25;;;;;22.26;45.69;101074.56;4965402;28;46225;-61
2023/05/05 11:03:21;;;;;;;;;1.40;1.00;;;;;22.39;45.87;101071.19;4924582;28;45534;-64
2023/05/05 11:06:02;;;;;;;;;0.40;0.40;;;;;22.53;45.74;101070.59;4912209;28;45405;-63
2023/05/05 11:08:28;;;;;;;;;0.60;0.40;;;;;22.65;45.70;101062.72;4946208;28;45402;-61
2023/05/05 11:10:54;;;;;;;;;2.00;2.00;;;;;22.75;46.29;101061.84;4914988;28;45398;-63
2023/05/05 11:13:19;;;;;;;;;4.00;2.00;;;;;22.81;45.56;101055.09;4946645;28;45714;-64
2023/05/05 11:15:46;;;;;;;;;2.00;2.00;;;;;22.77;45.79;101042.81;4916502;28;45324;-64
2023/05/05 11:18:35;;;;;;;;;0.00;0.00;;;;;22.99;45.04;101049.94;4931154;28;45470;-63
2023/05/05 11:21:00;;;;;;;;;2.00;2.00;;;;;23.01;44.94;101042.13;4930739;28;47858;-64
2023/05/05 11:23:26;;;;;;;;;0.75;0.75;;;;;22.91;44.46;101048.63;4928554;28;45389;-63
2023/05/05 11:25:52;;;;;;;;;0.75;0.75;;;;;22.86;44.45;101046.69;5016105;28;45376;-62